Terminal Aerodrome Forecast
Issued by NWS

Home | Current Version | Previous Version | Text Only | Print | Product List | Glossary On
Versions: 1 2 3 4 5 6 7 8 9 10 11 12 13 14 15 16 17 18 19 20 21 22 23 24 25 26 27 28 29 30 31 32 33 34 35 36 37 38 39 40 41 42 43 44 45 46
000
FTUS41 KCLE 152033 AAA
TAFFDY
TAF AMD
KFDY 152033Z 1521/1618 19010G20KT P6SM -SHRA OVC035
      TEMPO 1521/1601 5SM -SHRA BR OVC012
     FM160100 19005KT 3SM SHRA OVC008
     FM160600 16006KT 5SM -SHRA BR OVC003
     FM161300 VRB03KT 5SM -SHRA BR OVC008=

USA.gov is the U.S. government's official web portal to all federal, state and local government web resources and services.